Time;durP1;ratioP1;P1;durP2;ratioP2;P2;SDS_P1;SDS_P2;PMS_P1;PMS_P2;Temp;Humidity;BMP_temperature;BMP_pressure;BME280_temperature;BME280_humidity;BME280_pressure;Samples;Min_cycle;Max_cycle;Signal;HPM_P1;HPM_P2
2021/06/04 00:01:14;;;;;;;24.77;13.73;;;;;;;;;;5042549;28;20041;-59
2021/06/04 00:03:40;;;;;;;24.17;14.40;;;;;;;;;;5035663;28;20041;-58
2021/06/04 00:06:06;;;;;;;26.83;14.40;;;;;;;;;;5041119;28;20049;-57
2021/06/04 00:08:33;;;;;;;27.95;14.50;;;;;;;;;;5042947;28;20057;-58
2021/06/04 00:11:00;;;;;;;27.40;13.30;;;;;;;;;;5039326;28;20136;-56
2021/06/04 00:13:27;;;;;;;27.15;14.05;;;;;;;;;;5061211;28;20029;-53
2021/06/04 00:15:55;;;;;;;22.58;13.45;;;;;;;;;;5040020;28;20046;-57
2021/06/04 00:18:24;;;;;;;25.07;14.20;;;;;;;;;;5051197;28;20093;-53
2021/06/04 00:20:50;;;;;;;26.95;13.90;;;;;;;;;;5044239;28;20092;-58
2021/06/04 00:23:16;;;;;;;30.35;14.65;;;;;;;;;;5044673;28;20037;-55
2021/06/04 00:25:42;;;;;;;29.30;14.95;;;;;;;;;;5049377;28;20041;-57
2021/06/04 00:28:08;;;;;;;23.42;13.38;;;;;;;;;;5050539;28;20037;-56
2021/06/04 00:30:34;;;;;;;29.23;13.73;;;;;;;;;;5051690;28;20034;-56
2021/06/04 00:33:00;;;;;;;30.52;14.30;;;;;;;;;;5043081;28;20047;-60
2021/06/04 00:35:28;;;;;;;25.00;13.52;;;;;;;;;;5040627;28;20047;-59
2021/06/04 00:37:54;;;;;;;29.57;14.23;;;;;;;;;;5054034;28;20043;-57
2021/06/04 00:40:22;;;;;;;25.05;13.73;;;;;;;;;;5054108;28;20289;-59
2021/06/04 00:42:48;;;;;;;22.35;12.45;;;;;;;;;;5074091;28;20040;-59
2021/06/04 00:45:16;;;;;;;32.22;13.85;;;;;;;;;;5058927;28;20056;-54
2021/06/04 00:47:43;;;;;;;23.77;13.18;;;;;;;;;;5046260;28;20040;-59
2021/06/04 00:50:11;;;;;;;28.48;13.50;;;;;;;;;;5055402;28;20103;-60
2021/06/04 00:52:38;;;;;;;25.30;13.05;;;;;;;;;;5052060;28;20036;-54
2021/06/04 00:55:07;;;;;;;29.50;13.68;;;;;;;;;;5080581;28;20045;-51
2021/06/04 00:57:34;;;;;;;23.23;12.60;;;;;;;;;;5058313;28;20044;-56
2021/06/04 01:00:02;;;;;;;23.15;12.50;;;;;;;;;;5057426;28;20045;-56
2021/06/04 01:02:30;;;;;;;22.48;12.50;;;;;;;;;;5052731;28;20044;-56
2021/06/04 01:04:58;;;;;;;25.00;12.80;;;;;;;;;;5064059;28;20087;-59
2021/06/04 01:07:31;;;;;;;23.20;12.50;;;;;;;;;;5058535;28;20040;-57
2021/06/04 01:10:11;;;;;;;24.42;12.60;;;;;;;;;;5062257;28;20048;-56
2021/06/04 01:12:46;;;;;;;24.95;12.38;;;;;;;;;;5046119;28;20048;-53
2021/06/04 01:15:15;;;;;;;22.90;12.77;;;;;;;;;;5042307;28;20061;-54
2021/06/04 01:17:45;;;;;;;25.00;13.18;;;;;;;;;;5040399;28;20049;-58
2021/06/04 01:20:13;;;;;;;25.08;12.57;;;;;;;;;;5040124;28;20037;-58
2021/06/04 01:22:47;;;;;;;26.58;12.70;;;;;;;;;;5041300;28;20060;-54
2021/06/04 01:25:33;;;;;;;22.00;12.70;;;;;;;;;;5043347;28;20049;-59
2021/06/04 01:28:01;;;;;;;23.92;12.43;;;;;;;;;;5036429;28;20037;-56
2021/06/04 01:30:29;;;;;;;25.55;13.30;;;;;;;;;;5041062;28;20061;-52
2021/06/04 01:32:57;;;;;;;25.10;13.75;;;;;;;;;;5045768;28;20048;-56
2021/06/04 01:35:25;;;;;;;23.30;12.90;;;;;;;;;;5061170;28;20052;-59
2021/06/04 01:37:56;;;;;;;22.67;12.63;;;;;;;;;;5057521;28;20118;-57
2021/06/04 01:40:24;;;;;;;23.65;12.93;;;;;;;;;;5058579;28;20061;-56
2021/06/04 01:42:51;;;;;;;28.92;14.73;;;;;;;;;;5054071;28;20045;-58
2021/06/04 01:45:19;;;;;;;27.30;14.67;;;;;;;;;;5042499;28;20060;-55
2021/06/04 01:47:48;;;;;;;28.17;14.02;;;;;;;;;;5038767;28;20289;-56
2021/06/04 01:50:13;;;;;;;;;;;;;;;;;;5044137;28;20045;-54
2021/06/04 01:52:41;;;;;;;24.95;14.13;;;;;;;;;;5040645;28;20013;-58
2021/06/04 01:55:09;;;;;;;30.30;14.82;;;;;;;;;;5075905;28;20072;-59
2021/06/04 01:57:37;;;;;;;29.70;14.82;;;;;;;;;;5063639;28;20056;-56
2021/06/04 02:00:08;;;;;;;24.75;14.10;;;;;;;;;;5059020;28;20055;-57
2021/06/04 02:02:35;;;;;;;25.67;13.75;;;;;;;;;;5044044;28;20041;-58
2021/06/04 02:05:04;;;;;;;25.48;13.95;;;;;;;;;;5038594;28;20045;-59
2021/06/04 02:07:32;;;;;;;24.00;14.18;;;;;;;;;;5042080;28;20045;-58
2021/06/04 02:10:00;;;;;;;29.90;13.68;;;;;;;;;;5040122;28;20059;-54
2021/06/04 02:12:26;;;;;;;30.63;14.30;;;;;;;;;;5041325;28;20045;-59
2021/06/04 02:14:53;;;;;;;25.00;13.57;;;;;;;;;;5038761;28;20122;-59
2021/06/04 02:17:25;;;;;;;25.95;13.18;;;;;;;;;;5042729;28;20037;-56
2021/06/04 02:19:57;;;;;;;22.98;13.65;;;;;;;;;;5038351;28;20037;-58
2021/06/04 02:22:25;;;;;;;24.90;13.10;;;;;;;;;;5042298;28;20045;-59
2021/06/04 02:24:54;;;;;;;30.50;12.77;;;;;;;;;;5047363;28;20032;-51
2021/06/04 02:27:23;;;;;;;26.02;13.70;;;;;;;;;;5062624;28;20041;-55
2021/06/04 02:29:52;;;;;;;25.38;13.32;;;;;;;;;;5056789;28;20103;-59
2021/06/04 02:32:19;;;;;;;26.38;13.50;;;;;;;;;;5062386;28;20029;-54
2021/06/04 02:34:48;;;;;;;27.70;13.70;;;;;;;;;;5056931;28;20091;-54
2021/06/04 02:37:17;;;;;;;24.23;13.25;;;;;;;;;;5045015;28;20047;-57
2021/06/04 02:39:47;;;;;;;27.00;13.77;;;;;;;;;;5040404;28;20037;-54
2021/06/04 02:42:14;;;;;;;23.88;13.90;;;;;;;;;;5044128;28;20107;-56
2021/06/04 02:44:43;;;;;;;23.50;13.03;;;;;;;;;;5042245;28;20086;-55
2021/06/04 02:47:11;;;;;;;28.38;13.43;;;;;;;;;;5055651;28;20285;-54
2021/06/04 02:49:38;;;;;;;26.45;13.25;;;;;;;;;;5041084;28;20041;-53
2021/06/04 02:52:09;;;;;;;24.58;13.18;;;;;;;;;;5038145;28;20041;-52
2021/06/04 02:54:37;;;;;;;24.33;12.88;;;;;;;;;;5041120;28;20053;-57
2021/06/04 02:57:04;;;;;;;25.52;13.43;;;;;;;;;;5053610;28;20089;-57
2021/06/04 02:59:33;;;;;;;24.05;13.05;;;;;;;;;;5063341;28;20037;-56
2021/06/04 03:02:02;;;;;;;22.60;12.90;;;;;;;;;;5044412;28;20041;-55
2021/06/04 03:04:30;;;;;;;24.65;12.30;;;;;;;;;;5040668;28;20053;-57
2021/06/04 03:06:58;;;;;;;24.05;12.82;;;;;;;;;;5051365;28;20093;-51
2021/06/04 03:09:27;;;;;;;26.67;13.60;;;;;;;;;;5061422;28;20045;-51
2021/06/04 03:11:58;;;;;;;23.33;13.15;;;;;;;;;;5047167;28;20045;-58
2021/06/04 03:14:24;;;;;;;25.73;13.48;;;;;;;;;;5033280;28;20099;-53
2021/06/04 03:16:50;;;;;;;28.13;14.02;;;;;;;;;;5037067;28;20068;-53
2021/06/04 03:19:17;;;;;;;24.17;12.82;;;;;;;;;;5040884;28;20033;-53
2021/06/04 03:21:45;;;;;;;23.15;12.68;;;;;;;;;;5036410;28;20085;-53
2021/06/04 03:24:12;;;;;;;24.43;12.37;;;;;;;;;;5023689;28;20051;-56
2021/06/04 03:26:40;;;;;;;27.08;13.55;;;;;;;;;;5038799;28;20275;-53
2021/06/04 03:29:14;;;;;;;23.85;13.25;;;;;;;;;;5039623;28;20068;-56
2021/06/04 03:31:43;;;;;;;25.55;13.75;;;;;;;;;;5037955;28;20061;-54
2021/06/04 03:34:10;;;;;;;23.42;13.77;;;;;;;;;;5040604;28;20045;-55
2021/06/04 03:36:39;;;;;;;25.10;13.10;;;;;;;;;;5029226;28;20044;-54
2021/06/04 03:39:07;;;;;;;22.88;13.07;;;;;;;;;;5053982;28;20101;-59
2021/06/04 03:41:34;;;;;;;25.45;12.73;;;;;;;;;;5049327;28;20134;-56
2021/06/04 03:44:06;;;;;;;27.63;12.82;;;;;;;;;;5040030;28;20042;-55
2021/06/04 03:46:32;;;;;;;23.38;13.23;;;;;;;;;;5039136;28;20041;-59
2021/06/04 03:48:59;;;;;;;25.85;13.43;;;;;;;;;;5037886;28;20045;-59
2021/06/04 03:51:27;;;;;;;26.05;13.55;;;;;;;;;;5040596;28;20093;-57
2021/06/04 03:53:53;;;;;;;26.33;13.50;;;;;;;;;;5050426;28;20036;-58
2021/06/04 03:56:20;;;;;;;22.45;12.32;;;;;;;;;;5061210;28;20313;-56
2021/06/04 03:58:47;;;;;;;25.92;12.80;;;;;;;;;;5047298;28;20093;-56
2021/06/04 04:01:15;;;;;;;22.08;12.55;;;;;;;;;;5048694;28;20044;-52
2021/06/04 04:03:42;;;;;;;25.63;13.85;;;;;;;;;;5056552;28;20059;-50
2021/06/04 04:06:08;;;;;;;28.90;15.55;;;;;;;;;;5060542;28;20048;-55
2021/06/04 04:08:34;;;;;;;26.55;14.38;;;;;;;;;;5053357;28;20041;-56
2021/06/04 04:11:00;;;;;;;22.75;12.70;;;;;;;;;;5042354;28;20053;-54
2021/06/04 04:13:27;;;;;;;22.42;12.35;;;;;;;;;;5041321;28;20119;-56
2021/06/04 04:15:55;;;;;;;21.05;11.85;;;;;;;;;;5041450;28;20045;-57
2021/06/04 04:18:23;;;;;;;21.15;12.18;;;;;;;;;;5030573;28;20040;-53
2021/06/04 04:20:50;;;;;;;21.48;11.18;;;;;;;;;;5040157;28;20048;-54
2021/06/04 04:23:17;;;;;;;20.73;11.70;;;;;;;;;;5047039;28;20077;-51
2021/06/04 04:25:45;;;;;;;19.65;11.40;;;;;;;;;;5037314;28;20274;-54
2021/06/04 04:28:14;;;;;;;23.15;11.90;;;;;;;;;;5040064;28;20085;-56
2021/06/04 04:30:40;;;;;;;21.35;10.95;;;;;;;;;;5039178;28;20045;-51
2021/06/04 04:33:07;;;;;;;22.00;11.77;;;;;;;;;;5041159;28;20069;-53
2021/06/04 04:35:37;;;;;;;18.60;11.20;;;;;;;;;;5035146;28;20037;-53
2021/06/04 04:38:05;;;;;;;23.40;11.93;;;;;;;;;;5039736;28;20045;-59
2021/06/04 04:40:34;;;;;;;23.42;12.35;;;;;;;;;;5036011;28;20033;-55
2021/06/04 04:43:00;;;;;;;21.23;11.90;;;;;;;;;;5039007;28;20033;-57
2021/06/04 04:45:26;;;;;;;27.00;11.57;;;;;;;;;;5037244;28;20052;-55
2021/06/04 04:47:52;;;;;;;22.27;11.35;;;;;;;;;;5040620;28;20056;-51
2021/06/04 04:50:20;;;;;;;19.45;11.68;;;;;;;;;;5038998;28;20191;-55
2021/06/04 04:52:47;;;;;;;22.90;12.45;;;;;;;;;;5039173;28;20041;-54
2021/06/04 04:55:14;;;;;;;28.00;12.38;;;;;;;;;;5038769;28;20045;-57
2021/06/04 04:57:40;;;;;;;22.85;12.75;;;;;;;;;;5042965;28;20084;-51
2021/06/04 05:00:08;;;;;;;25.00;13.07;;;;;;;;;;5073864;28;20041;-54
2021/06/04 05:02:35;;;;;;;31.65;12.60;;;;;;;;;;5059427;28;20045;-59
2021/06/04 05:05:02;;;;;;;25.38;12.43;;;;;;;;;;5058236;28;20048;-54
2021/06/04 05:07:28;;;;;;;20.45;11.77;;;;;;;;;;5040647;28;20049;-58
2021/06/04 05:09:57;;;;;;;24.75;12.32;;;;;;;;;;5041899;28;20048;-55
2021/06/04 05:12:23;;;;;;;33.35;13.52;;;;;;;;;;5067964;28;20037;-56
2021/06/04 05:14:49;;;;;;;25.80;12.68;;;;;;;;;;5055897;28;20122;-55
2021/06/04 05:17:15;;;;;;;37.78;12.70;;;;;;;;;;5049898;28;20045;-56
2021/06/04 05:19:44;;;;;;;26.58;13.25;;;;;;;;;;5057268;28;20048;-48
2021/06/04 05:22:10;;;;;;;30.95;13.95;;;;;;;;;;5073296;28;20084;-53
2021/06/04 05:24:36;;;;;;;29.45;13.40;;;;;;;;;;5079088;28;20048;-52
2021/06/04 05:27:04;;;;;;;25.67;13.05;;;;;;;;;;5074837;28;20044;-51
2021/06/04 05:29:30;;;;;;;33.10;13.47;;;;;;;;;;5080191;28;20121;-49
2021/06/04 05:31:56;;;;;;;22.13;12.10;;;;;;;;;;5076810;28;20293;-55
2021/06/04 05:34:22;;;;;;;24.77;12.05;;;;;;;;;;5077019;28;20077;-50
2021/06/04 05:36:48;;;;;;;23.20;12.18;;;;;;;;;;5070375;28;20063;-51
2021/06/04 05:39:16;;;;;;;25.40;13.20;;;;;;;;;;5074175;28;20122;-53
2021/06/04 05:41:43;;;;;;;29.90;13.13;;;;;;;;;;5071513;28;20041;-54
2021/06/04 05:44:14;;;;;;;26.17;13.50;;;;;;;;;;5067787;28;20037;-53
2021/06/04 05:46:40;;;;;;;27.55;13.55;;;;;;;;;;5077195;28;20086;-54
2021/06/04 05:49:07;;;;;;;25.67;12.98;;;;;;;;;;5075008;28;20048;-56
2021/06/04 05:51:33;;;;;;;28.60;12.63;;;;;;;;;;5075356;28;20048;-54
2021/06/04 05:53:59;;;;;;;25.42;13.35;;;;;;;;;;5070979;27;20098;-55
2021/06/04 05:56:27;;;;;;;28.10;13.43;;;;;;;;;;5075681;28;20043;-53
2021/06/04 05:58:54;;;;;;;25.23;13.10;;;;;;;;;;5071550;28;20086;-58
2021/06/04 06:01:22;;;;;;;40.97;20.77;;;;;;;;;;5074940;28;20350;-56
2021/06/04 06:03:48;;;;;;;43.10;19.42;;;;;;;;;;5083471;27;20051;-55
2021/06/04 06:06:14;;;;;;;33.00;15.85;;;;;;;;;;5102348;27;20040;-53
2021/06/04 06:08:42;;;;;;;29.88;14.45;;;;;;;;;;5090646;28;20052;-48
2021/06/04 06:11:08;;;;;;;32.10;14.40;;;;;;;;;;5083738;28;20029;-54
2021/06/04 06:13:34;;;;;;;30.30;14.65;;;;;;;;;;5077886;28;20032;-50
2021/06/04 06:16:00;;;;;;;30.95;14.15;;;;;;;;;;5083202;28;20028;-53
2021/06/04 06:18:28;;;;;;;27.90;13.40;;;;;;;;;;5076884;28;20128;-49
2021/06/04 06:20:54;;;;;;;27.65;13.75;;;;;;;;;;5082154;28;20092;-55
2021/06/04 06:23:25;;;;;;;37.70;14.57;;;;;;;;;;5082490;28;20040;-52
2021/06/04 06:25:55;;;;;;;33.72;13.32;;;;;;;;;;5080869;28;20051;-54
2021/06/04 06:28:22;;;;;;;30.15;14.00;;;;;;;;;;5081608;28;20076;-57
2021/06/04 06:30:49;;;;;;;29.33;13.50;;;;;;;;;;5078353;28;20036;-54
2021/06/04 06:33:15;;;;;;;32.97;14.23;;;;;;;;;;5082170;28;20110;-59
2021/06/04 06:35:46;;;;;;;25.48;12.23;;;;;;;;;;5079458;28;20047;-57
2021/06/04 06:38:12;;;;;;;26.00;12.88;;;;;;;;;;5079802;28;20135;-57
2021/06/04 06:40:39;;;;;;;25.85;11.38;;;;;;;;;;5077804;28;20032;-57
2021/06/04 06:43:06;;;;;;;27.17;12.38;;;;;;;;;;5082034;28;20040;-56
2021/06/04 06:45:32;;;;;;;33.17;12.40;;;;;;;;;;5076419;28;20059;-53
2021/06/04 06:47:59;;;;;;;21.88;11.88;;;;;;;;;;5082468;28;20040;-58
2021/06/04 06:50:28;;;;;;;31.38;13.75;;;;;;;;;;5078990;27;20060;-54
2021/06/04 06:52:55;;;;;;;32.03;12.95;;;;;;;;;;5081930;28;20040;-58
2021/06/04 06:55:21;;;;;;;25.33;12.93;;;;;;;;;;5077219;28;20340;-59
2021/06/04 06:57:47;;;;;;;30.48;13.25;;;;;;;;;;5081763;28;20048;-59
2021/06/04 07:00:15;;;;;;;26.75;13.43;;;;;;;;;;5077879;28;20048;-57
2021/06/04 07:02:41;;;;;;;30.45;13.00;;;;;;;;;;5080103;28;20032;-57
2021/06/04 07:05:07;;;;;;;28.95;12.70;;;;;;;;;;5077539;28;20043;-56
2021/06/04 07:07:34;;;;;;;26.25;11.82;;;;;;;;;;5081565;28;20039;-55
2021/06/04 07:10:01;;;;;;;27.92;12.90;;;;;;;;;;5083083;28;20036;-59
2021/06/04 07:12:27;;;;;;;21.25;11.65;;;;;;;;;;5078172;28;20044;-60
2021/06/04 07:14:55;;;;;;;25.38;12.35;;;;;;;;;;5079871;28;20044;-50
2021/06/04 07:17:22;;;;;;;24.15;12.43;;;;;;;;;;5078554;28;20055;-57
2021/06/04 07:19:51;;;;;;;25.70;12.00;;;;;;;;;;5080946;28;20053;-54
2021/06/04 07:22:16;;;;;;;25.65;11.57;;;;;;;;;;5077700;28;20048;-54
2021/06/04 07:24:43;;;;;;;25.55;12.50;;;;;;;;;;5081751;28;20028;-58
2021/06/04 07:27:10;;;;;;;24.58;11.30;;;;;;;;;;5080138;28;20037;-55
2021/06/04 07:29:36;;;;;;;23.45;11.82;;;;;;;;;;5080851;28;20048;-55
2021/06/04 07:32:05;;;;;;;29.90;12.38;;;;;;;;;;5079097;28;20044;-55
2021/06/04 07:34:30;;;;;;;27.70;12.00;;;;;;;;;;5083100;28;20117;-53
2021/06/04 07:36:58;;;;;;;27.42;11.90;;;;;;;;;;5075918;28;20048;-55
2021/06/04 07:39:26;;;;;;;25.38;12.60;;;;;;;;;;5080607;28;20041;-49
2021/06/04 07:41:52;;;;;;;30.25;12.68;;;;;;;;;;5077580;28;20125;-51
2021/06/04 07:44:21;;;;;;;24.38;11.57;;;;;;;;;;5080341;28;20055;-48
2021/06/04 07:46:47;;;;;;;27.17;12.88;;;;;;;;;;5077284;28;20032;-56
2021/06/04 07:49:14;;;;;;;22.40;12.57;;;;;;;;;;5080460;28;20040;-55
2021/06/04 07:51:40;;;;;;;22.55;12.55;;;;;;;;;;5079461;28;20039;-60
2021/06/04 07:54:07;;;;;;;20.77;10.65;;;;;;;;;;5077408;28;20068;-55
2021/06/04 07:56:33;;;;;;;23.27;10.65;;;;;;;;;;5080476;28;20041;-52
2021/06/04 07:59:00;;;;;;;20.77;10.77;;;;;;;;;;5076923;28;20052;-59
2021/06/04 08:01:29;;;;;;;24.08;12.20;;;;;;;;;;5079894;28;20044;-55
2021/06/04 08:03:55;;;;;;;21.05;10.85;;;;;;;;;;5075925;28;20048;-58
2021/06/04 08:06:21;;;;;;;22.60;10.18;;;;;;;;;;5080687;28;20048;-60
2021/06/04 08:08:49;;;;;;;21.20;10.68;;;;;;;;;;5077843;28;20039;-59
2021/06/04 08:11:18;;;;;;;22.73;10.50;;;;;;;;;;5073214;28;20081;-58
2021/06/04 08:13:45;;;;;;;21.65;10.13;;;;;;;;;;5077780;28;20377;-55
2021/06/04 08:16:12;;;;;;;21.52;10.57;;;;;;;;;;5078778;28;20048;-59
2021/06/04 08:18:39;;;;;;;20.38;10.02;;;;;;;;;;5075991;28;20036;-56
2021/06/04 08:21:07;;;;;;;22.13;9.67;;;;;;;;;;5081000;28;20096;-58
2021/06/04 08:23:35;;;;;;;17.98;9.80;;;;;;;;;;5076808;28;20040;-55
2021/06/04 08:26:03;;;;;;;22.10;10.65;;;;;;;;;;5081002;28;20032;-59
2021/06/04 08:28:29;;;;;;;18.17;10.13;;;;;;;;;;5075815;28;20101;-51
2021/06/04 08:30:56;;;;;;;17.83;9.82;;;;;;;;;;5082055;28;20048;-58
2021/06/04 08:33:23;;;;;;;22.40;11.20;;;;;;;;;;5081507;28;20113;-59
2021/06/04 08:35:51;;;;;;;21.58;10.98;;;;;;;;;;5079124;28;20047;-57
2021/06/04 08:38:17;;;;;;;23.77;11.48;;;;;;;;;;5062493;28;20045;-56
2021/06/04 08:40:43;;;;;;;19.85;10.88;;;;;;;;;;5039246;28;20045;-55
2021/06/04 08:43:19;;;;;;;20.70;9.93;;;;;;;;;;5042891;28;20042;-56
2021/06/04 08:45:51;;;;;;;23.42;10.63;;;;;;;;;;5054737;28;20041;-59
2021/06/04 08:48:21;;;;;;;19.73;10.32;;;;;;;;;;5069916;28;20036;-56
2021/06/04 08:50:58;;;;;;;21.25;10.27;;;;;;;;;;5065055;28;20049;-56
2021/06/04 08:53:26;;;;;;;20.98;9.68;;;;;;;;;;5063726;28;20049;-55
2021/06/04 08:55:58;;;;;;;44.40;18.40;;;;;;;;;;5060572;28;20044;-57
2021/06/04 08:58:36;;;;;;;17.50;9.38;;;;;;;;;;5064474;28;20029;-57
2021/06/04 09:01:04;;;;;;;20.90;9.57;;;;;;;;;;5059350;28;20116;-58
2021/06/04 09:03:30;;;;;;;;;;;;;;;;;;5064832;28;20033;-53
2021/06/04 09:06:00;;;;;;;15.73;8.63;;;;;;;;;;5060494;28;19924;-58
2021/06/04 09:08:27;;;;;;;21.38;9.50;;;;;;;;;;5060994;28;20036;-56
2021/06/04 09:10:56;;;;;;;17.00;8.00;;;;;;;;;;5067455;28;20106;-54
2021/06/04 09:13:23;;;;;;;;;;;;;;;;;;5063914;28;20090;-56
2021/06/04 09:15:49;;;;;;;18.58;8.10;;;;;;;;;;5064191;28;19927;-54
2021/06/04 09:18:17;;;;;;;18.15;8.65;;;;;;;;;;5081748;28;20033;-56
2021/06/04 09:20:46;;;;;;;17.70;8.38;;;;;;;;;;5079446;28;20032;-57
2021/06/04 09:23:14;;;;;;;15.32;8.13;;;;;;;;;;5082746;28;20040;-53
2021/06/04 09:25:42;;;;;;;16.63;8.50;;;;;;;;;;5077891;28;20120;-57
2021/06/04 09:28:18;;;;;;;21.15;9.23;;;;;;;;;;5083594;28;20125;-52
2021/06/04 09:30:45;;;;;;;15.02;8.48;;;;;;;;;;5079084;28;20044;-56
2021/06/04 09:33:12;;;;;;;14.63;7.68;;;;;;;;;;5081586;28;20052;-53
2021/06/04 09:35:39;;;;;;;15.93;8.07;;;;;;;;;;5083058;28;20044;-51
2021/06/04 09:38:15;;;;;;;18.55;7.00;;;;;;;;;;5079791;28;20052;-59
2021/06/04 09:40:41;;;;;;;15.65;8.68;;;;;;;;;;5077248;28;20041;-53
2021/06/04 09:43:08;;;;;;;14.48;7.90;;;;;;;;;;5073752;28;20052;-57
2021/06/04 09:45:37;;;;;;;18.63;8.43;;;;;;;;;;5083070;28;20040;-56
2021/06/04 09:48:05;;;;;;;14.52;6.85;;;;;;;;;;5077934;28;20040;-59
2021/06/04 09:50:33;;;;;;;11.82;6.80;;;;;;;;;;5082018;28;20043;-52
2021/06/04 09:53:07;;;;;;;13.38;6.80;;;;;;;;;;5080323;28;20033;-53
2021/06/04 09:55:35;;;;;;;11.73;6.38;;;;;;;;;;5079654;28;20048;-55
2021/06/04 09:58:06;;;;;;;16.55;5.60;;;;;;;;;;5077656;28;20040;-53
2021/06/04 10:00:33;;;;;;;12.15;5.57;;;;;;;;;;5080856;28;20051;-58
2021/06/04 10:03:08;;;;;;;9.23;4.80;;;;;;;;;;5068937;28;20040;-55
2021/06/04 10:05:34;;;;;;;13.05;5.60;;;;;;;;;;5061029;28;20040;-59
2021/06/04 10:08:02;;;;;;;13.07;5.43;;;;;;;;;;5067552;28;20036;-55
2021/06/04 10:10:30;;;;;;;12.90;6.30;;;;;;;;;;5082156;28;20052;-58
2021/06/04 10:12:58;;;;;;;12.15;5.60;;;;;;;;;;5078062;28;20054;-57
2021/06/04 10:15:26;;;;;;;11.40;6.32;;;;;;;;;;5082865;28;20028;-57
2021/06/04 10:18:03;;;;;;;;;;;;;;;;;;5076781;28;20048;-57
2021/06/04 10:20:42;;;;;;;11.45;5.30;;;;;;;;;;5075443;28;19936;-60
2021/06/04 10:23:13;;;;;;;10.00;5.13;;;;;;;;;;5080144;28;20036;-58
2021/06/04 10:25:42;;;;;;;11.52;5.22;;;;;;;;;;5081728;28;20042;-55
2021/06/04 10:28:25;;;;;;;13.10;4.65;;;;;;;;;;5079368;28;20055;-52
2021/06/04 10:30:53;;;;;;;13.68;5.10;;;;;;;;;;5081181;28;20035;-60
2021/06/04 10:33:23;;;;;;;8.75;4.72;;;;;;;;;;5079545;28;20036;-59
2021/06/04 10:35:54;;;;;;;13.13;5.55;;;;;;;;;;5081665;28;20024;-57
2021/06/04 10:38:23;;;;;;;9.40;4.60;;;;;;;;;;5079705;28;20072;-54
2021/06/04 10:40:52;;;;;;;10.98;5.30;;;;;;;;;;5080844;28;20028;-55
2021/06/04 10:43:29;;;;;;;9.77;5.38;;;;;;;;;;5083372;28;20051;-58
2021/06/04 10:46:08;;;;;;;10.70;5.43;;;;;;;;;;5059745;28;20045;-59
2021/06/04 10:48:48;;;;;;;11.43;5.70;;;;;;;;;;5060888;28;20048;-58
2021/06/04 10:51:19;;;;;;;11.35;5.38;;;;;;;;;;5076939;28;20055;-59
2021/06/04 10:53:51;;;;;;;10.68;5.38;;;;;;;;;;5080302;28;20048;-52
2021/06/04 10:56:19;;;;;;;9.85;5.15;;;;;;;;;;5076790;28;20024;-60
2021/06/04 10:58:47;;;;;;;10.73;5.55;;;;;;;;;;5080179;28;20043;-57
2021/06/04 11:01:16;;;;;;;14.50;6.90;;;;;;;;;;5062829;28;20056;-56
2021/06/04 11:03:47;;;;;;;20.27;6.35;;;;;;;;;;5068722;28;20114;-56
2021/06/04 11:06:16;;;;;;;11.38;6.50;;;;;;;;;;5078210;28;20036;-57
2021/06/04 11:08:53;;;;;;;12.48;7.32;;;;;;;;;;5080432;28;20044;-59
2021/06/04 11:11:32;;;;;;;13.02;6.28;;;;;;;;;;5076655;28;20100;-59
2021/06/04 11:14:05;;;;;;;16.08;6.68;;;;;;;;;;5080725;28;20040;-60
2021/06/04 11:16:37;;;;;;;11.90;6.45;;;;;;;;;;5073166;28;20070;-60
2021/06/04 11:19:10;;;;;;;17.50;6.05;;;;;;;;;;5059940;28;20049;-52
2021/06/04 11:21:38;;;;;;;15.85;7.13;;;;;;;;;;5069371;28;20056;-61
2021/06/04 11:24:07;;;;;;;14.38;6.15;;;;;;;;;;5081036;28;20045;-56
2021/06/04 11:26:35;;;;;;;13.48;5.55;;;;;;;;;;5075839;28;20153;-60
2021/06/04 11:29:04;;;;;;;14.93;5.70;;;;;;;;;;5080432;28;20036;-61
2021/06/04 11:31:33;;;;;;;12.00;5.43;;;;;;;;;;5053245;28;20042;-61
2021/06/04 11:34:02;;;;;;;11.40;5.32;;;;;;;;;;5060683;28;20037;-61
2021/06/04 11:36:30;;;;;;;12.27;6.10;;;;;;;;;;5062255;28;20044;-60
2021/06/04 11:38:59;;;;;;;12.65;5.75;;;;;;;;;;5082332;28;20096;-57
2021/06/04 11:41:28;;;;;;;9.80;5.35;;;;;;;;;;5077817;28;20040;-59
2021/06/04 11:44:06;;;;;;;11.88;5.97;;;;;;;;;;5082002;28;20142;-57
2021/06/04 11:46:35;;;;;;;11.38;5.35;;;;;;;;;;5078324;28;20044;-59
2021/06/04 11:49:03;;;;;;;16.13;5.35;;;;;;;;;;5081469;28;20024;-56
2021/06/04 11:51:34;;;;;;;13.88;6.32;;;;;;;;;;5048403;28;20037;-59
2021/06/04 11:54:27;;;;;;;13.50;7.10;;;;;;;;;;5076551;28;20040;-59
2021/06/04 11:56:55;;;;;;;10.50;5.43;;;;;;;;;;5010819;28;20040;-58
2021/06/04 11:59:40;;;;;;;13.75;5.80;;;;;;;;;;5079654;28;20048;-57
2021/06/04 12:02:08;;;;;;;12.13;5.72;;;;;;;;;;5077927;28;20060;-58
2021/06/04 12:04:34;;;;;;;13.25;5.50;;;;;;;;;;5083948;28;20067;-58
2021/06/04 12:07:01;;;;;;;12.50;4.85;;;;;;;;;;5083804;28;20059;-57
2021/06/04 12:09:43;;;;;;;13.23;5.65;;;;;;;;;;5063141;28;20159;-56
2021/06/04 12:12:30;;;;;;;12.18;6.00;;;;;;;;;;5063706;28;20129;-58
2021/06/04 12:15:15;;;;;;;12.00;6.07;;;;;;;;;;5064082;28;20057;-56
2021/06/04 12:17:43;;;;;;;11.25;5.40;;;;;;;;;;5063086;28;20029;-59
2021/06/04 12:20:34;;;;;;;11.15;5.85;;;;;;;;;;5065589;28;20048;-61
2021/06/04 12:23:02;;;;;;;10.48;5.35;;;;;;;;;;5063262;28;20089;-58
2021/06/04 12:25:43;;;;;;;9.80;5.28;;;;;;;;;;5084951;28;20033;-58
2021/06/04 12:28:30;;;;;;;11.02;5.15;;;;;;;;;;5077499;28;20056;-60
2021/06/04 12:31:04;;;;;;;15.40;5.03;;;;;;;;;;5081354;28;20042;-58
2021/06/04 12:33:39;;;;;;;12.45;5.68;;;;;;;;;;5079581;28;20032;-62
2021/06/04 12:36:25;;;;;;;13.63;5.43;;;;;;;;;;5060415;28;20036;-56
2021/06/04 12:38:53;;;;;;;11.15;5.18;;;;;;;;;;5070647;28;20036;-61
2021/06/04 12:41:19;;;;;;;;;;;;;;;;;;5083294;28;20040;-58
2021/06/04 12:43:51;;;;;;;10.43;6.00;;;;;;;;;;5077645;28;20005;-61
2021/06/04 12:46:22;;;;;;;11.23;5.13;;;;;;;;;;5083061;28;20139;-61
2021/06/04 12:48:58;;;;;;;11.95;4.60;;;;;;;;;;5084019;28;20051;-59
2021/06/04 12:51:25;;;;;;;15.48;5.60;;;;;;;;;;5075833;28;20083;-61
2021/06/04 12:53:52;;;;;;;11.27;5.25;;;;;;;;;;5064233;28;20037;-61
2021/06/04 12:56:21;;;;;;;15.45;4.93;;;;;;;;;;5076452;28;20036;-53
2021/06/04 12:58:48;;;;;;;10.32;4.75;;;;;;;;;;5084085;28;20044;-59
2021/06/04 13:01:16;;;;;;;12.15;5.20;;;;;;;;;;5076873;28;20051;-56
2021/06/04 13:03:45;;;;;;;9.73;5.18;;;;;;;;;;5083069;28;20044;-60
2021/06/04 13:06:13;;;;;;;9.60;4.90;;;;;;;;;;5078692;28;20143;-60
2021/06/04 13:08:45;;;;;;;11.38;5.25;;;;;;;;;;5083726;28;20060;-60
2021/06/04 13:11:11;;;;;;;9.45;5.55;;;;;;;;;;5080442;28;20051;-61
2021/06/04 13:13:38;;;;;;;8.85;4.70;;;;;;;;;;5081606;28;20052;-57
2021/06/04 13:16:20;;;;;;;10.77;4.30;;;;;;;;;;5079419;28;20050;-57
2021/06/04 13:18:50;;;;;;;8.85;4.40;;;;;;;;;;5080324;28;20127;-58
2021/06/04 13:21:19;;;;;;;12.32;4.40;;;;;;;;;;5077480;28;20107;-59
2021/06/04 13:23:56;;;;;;;12.68;4.80;;;;;;;;;;5082455;28;20048;-56
2021/06/04 13:26:25;;;;;;;11.73;4.40;;;;;;;;;;5078997;28;20044;-57
2021/06/04 13:28:53;;;;;;;7.72;4.28;;;;;;;;;;5083072;28;20039;-57
2021/06/04 13:31:21;;;;;;;9.10;4.53;;;;;;;;;;5075943;28;20055;-59
2021/06/04 13:33:51;;;;;;;9.27;4.05;;;;;;;;;;5079362;28;20089;-58
2021/06/04 13:36:17;;;;;;;10.38;4.45;;;;;;;;;;5079290;28;20176;-57
2021/06/04 13:38:45;;;;;;;11.05;4.97;;;;;;;;;;5083055;28;20044;-54
2021/06/04 13:41:14;;;;;;;10.20;4.28;;;;;;;;;;5078371;28;20040;-60
2021/06/04 13:43:41;;;;;;;8.90;3.63;;;;;;;;;;5082428;28;20032;-60
2021/06/04 13:46:12;;;;;;;12.43;4.40;;;;;;;;;;5084127;28;20040;-56
2021/06/04 13:48:39;;;;;;;9.90;3.75;;;;;;;;;;5079241;28;20048;-55
2021/06/04 13:51:11;;;;;;;6.93;3.90;;;;;;;;;;5099900;28;20089;-54
2021/06/04 13:53:46;;;;;;;6.50;3.90;;;;;;;;;;5077894;28;20064;-53
2021/06/04 13:56:33;;;;;;;8.73;4.32;;;;;;;;;;5082613;28;20108;-57
2021/06/04 13:59:19;;;;;;;9.18;4.30;;;;;;;;;;5072151;28;20047;-60
2021/06/04 14:01:47;;;;;;;8.98;4.25;;;;;;;;;;5084571;28;20105;-56
2021/06/04 14:04:17;;;;;;;11.68;4.53;;;;;;;;;;5081299;28;20051;-56
2021/06/04 14:06:49;;;;;;;7.32;4.05;;;;;;;;;;5082532;28;20043;-57
2021/06/04 14:09:30;;;;;;;12.43;4.05;;;;;;;;;;5078755;28;20033;-57
2021/06/04 14:12:02;;;;;;;10.93;4.05;;;;;;;;;;5079670;28;20032;-60
2021/06/04 14:14:31;;;;;;;9.23;4.20;;;;;;;;;;5076607;28;20028;-57
2021/06/04 14:16:57;;;;;;;8.82;3.95;;;;;;;;;;5082000;28;20040;-53
2021/06/04 14:19:27;;;;;;;9.75;3.45;;;;;;;;;;5078088;28;20044;-57
2021/06/04 14:21:55;;;;;;;9.13;4.10;;;;;;;;;;5083511;28;20101;-60
2021/06/04 14:24:45;;;;;;;10.35;4.40;;;;;;;;;;5079180;28;20051;-57
2021/06/04 14:27:25;;;;;;;8.00;4.22;;;;;;;;;;5097227;28;20048;-58
2021/06/04 14:29:56;;;;;;;12.27;6.57;;;;;;;;;;5077349;28;20048;-59
2021/06/04 14:32:23;;;;;;;12.88;5.35;;;;;;;;;;5080495;28;20040;-60
2021/06/04 14:35:05;;;;;;;13.15;5.22;;;;;;;;;;5077525;28;20037;-61
2021/06/04 14:37:34;;;;;;;13.90;4.65;;;;;;;;;;5083537;28;20044;-61